sensor_id;sensor_type;location;lat;lon;timestamp;temperature;humidity
16958;DHT22;8595;52.542;11.974;2023-03-23T00:01:47;12.10;99.90
16958;DHT22;8595;52.542;11.974;2023-03-23T00:04:15;12.10;99.90
16958;DHT22;8595;52.542;11.974;2023-03-23T00:06:42;12.10;99.90
16958;DHT22;8595;52.542;11.974;2023-03-23T00:09:11;12.00;99.90
16958;DHT22;8595;52.542;11.974;2023-03-23T00:11:39;11.90;99.90
16958;DHT22;8595;52.542;11.974;2023-03-23T00:14:06;11.90;99.90
16958;DHT22;8595;52.542;11.974;2023-03-23T00:16:38;11.90;99.90
16958;DHT22;8595;52.542;11.974;2023-03-23T00:19:08;11.90;99.90
16958;DHT22;8595;52.542;11.974;2023-03-23T00:21:37;11.90;99.90
16958;DHT22;8595;52.542;11.974;2023-03-23T00:24:05;11.90;99.90
16958;DHT22;8595;52.542;11.974;2023-03-23T00:26:35;11.90;99.90
16958;DHT22;8595;52.542;11.974;2023-03-23T00:29:08;11.70;99.90
16958;DHT22;8595;52.542;11.974;2023-03-23T00:31:39;11.70;99.90
16958;DHT22;8595;52.542;11.974;2023-03-23T00:34:05;11.70;99.90
16958;DHT22;8595;52.542;11.974;2023-03-23T00:36:33;11.70;99.90
16958;DHT22;8595;52.542;11.974;2023-03-23T00:39:01;11.70;99.90
16958;DHT22;8595;52.542;11.974;2023-03-23T00:41:28;11.70;99.90
16958;DHT22;8595;52.542;11.974;2023-03-23T00:43:55;11.80;99.90
16958;DHT22;8595;52.542;11.974;2023-03-23T00:46:23;11.80;99.90
16958;DHT22;8595;52.542;11.974;2023-03-23T00:48:50;11.90;99.90
16958;DHT22;8595;52.542;11.974;2023-03-23T00:51:18;11.90;99.90
16958;DHT22;8595;52.542;11.974;2023-03-23T00:53:45;11.80;99.90
16958;DHT22;8595;52.542;11.974;2023-03-23T00:56:12;11.90;99.90
16958;DHT22;8595;52.542;11.974;2023-03-23T00:58:39;11.80;99.90
16958;DHT22;8595;52.542;11.974;2023-03-23T01:01:06;11.60;99.90
16958;DHT22;8595;52.542;11.974;2023-03-23T01:03:34;11.50;99.90
16958;DHT22;8595;52.542;11.974;2023-03-23T01:06:05;11.60;99.90
16958;DHT22;8595;52.542;11.974;2023-03-23T01:08:33;11.60;99.90
16958;DHT22;8595;52.542;11.974;2023-03-23T01:11:05;11.70;99.90
16958;DHT22;8595;52.542;11.974;2023-03-23T01:13:32;11.70;99.90
16958;DHT22;8595;52.542;11.974;2023-03-23T01:15:58;11.60;99.90
16958;DHT22;8595;52.542;11.974;2023-03-23T01:18:25;11.60;99.90
16958;DHT22;8595;52.542;11.974;2023-03-23T01:20:53;11.70;99.90
16958;DHT22;8595;52.542;11.974;2023-03-23T01:23:20;11.70;99.90
16958;DHT22;8595;52.542;11.974;2023-03-23T01:25:46;11.80;99.90
16958;DHT22;8595;52.542;11.974;2023-03-23T01:28:14;11.80;99.90
16958;DHT22;8595;52.542;11.974;2023-03-23T01:30:41;11.90;99.90
16958;DHT22;8595;52.542;11.974;2023-03-23T01:33:08;12.00;99.90
16958;DHT22;8595;52.542;11.974;2023-03-23T01:35:37;12.20;99.90
16958;DHT22;8595;52.542;11.974;2023-03-23T01:38:05;12.20;99.90
16958;DHT22;8595;52.542;11.974;2023-03-23T01:40:32;12.30;99.90
16958;DHT22;8595;52.542;11.974;2023-03-23T01:42:58;12.40;99.90
16958;DHT22;8595;52.542;11.974;2023-03-23T01:45:29;12.40;99.90
16958;DHT22;8595;52.542;11.974;2023-03-23T01:48:01;12.50;99.90
16958;DHT22;8595;52.542;11.974;2023-03-23T01:50:33;12.40;99.90
16958;DHT22;8595;52.542;11.974;2023-03-23T01:53:05;12.60;99.90
16958;DHT22;8595;52.542;11.974;2023-03-23T01:55:36;12.50;99.90
16958;DHT22;8595;52.542;11.974;2023-03-23T01:58:04;12.50;99.90
16958;DHT22;8595;52.542;11.974;2023-03-23T02:00:31;12.60;99.90
16958;DHT22;8595;52.542;11.974;2023-03-23T02:03:00;12.60;99.90
16958;DHT22;8595;52.542;11.974;2023-03-23T02:05:30;12.60;99.90
16958;DHT22;8595;52.542;11.974;2023-03-23T02:07:58;12.60;99.90
16958;DHT22;8595;52.542;11.974;2023-03-23T02:10:30;12.50;99.90
16958;DHT22;8595;52.542;11.974;2023-03-23T02:12:57;12.50;99.90
16958;DHT22;8595;52.542;11.974;2023-03-23T02:15:25;12.40;99.90
16958;DHT22;8595;52.542;11.974;2023-03-23T02:18:01;12.40;99.90
16958;DHT22;8595;52.542;11.974;2023-03-23T02:20:48;12.40;99.90
16958;DHT22;8595;52.542;11.974;2023-03-23T02:23:29;12.50;99.90
16958;DHT22;8595;52.542;11.974;2023-03-23T02:26:11;12.40;99.90
16958;DHT22;8595;52.542;11.974;2023-03-23T02:28:53;12.50;99.90
16958;DHT22;8595;52.542;11.974;2023-03-23T02:31:34;12.50;99.90
16958;DHT22;8595;52.542;11.974;2023-03-23T02:34:07;12.50;99.90
16958;DHT22;8595;52.542;11.974;2023-03-23T02:36:39;12.50;99.90
16958;DHT22;8595;52.542;11.974;2023-03-23T02:39:10;12.40;99.90
16958;DHT22;8595;52.542;11.974;2023-03-23T02:41:42;12.30;99.90
16958;DHT22;8595;52.542;11.974;2023-03-23T02:44:10;12.20;99.90
16958;DHT22;8595;52.542;11.974;2023-03-23T02:46:39;12.20;99.90
16958;DHT22;8595;52.542;11.974;2023-03-23T02:49:09;12.10;99.90
16958;DHT22;8595;52.542;11.974;2023-03-23T02:51:38;11.90;99.90
16958;DHT22;8595;52.542;11.974;2023-03-23T02:54:06;11.80;99.90
16958;DHT22;8595;52.542;11.974;2023-03-23T02:56:34;11.70;99.90
16958;DHT22;8595;52.542;11.974;2023-03-23T02:59:02;11.70;99.90
16958;DHT22;8595;52.542;11.974;2023-03-23T03:01:51;11.70;99.90
16958;DHT22;8595;52.542;11.974;2023-03-23T03:04:23;11.70;99.90
16958;DHT22;8595;52.542;11.974;2023-03-23T03:07:02;11.70;99.90
16958;DHT22;8595;52.542;11.974;2023-03-23T03:09:37;11.70;99.90
16958;DHT22;8595;52.542;11.974;2023-03-23T03:12:12;11.60;99.90
16958;DHT22;8595;52.542;11.974;2023-03-23T03:14:44;11.60;99.90
16958;DHT22;8595;52.542;11.974;2023-03-23T03:17:20;11.60;99.90
16958;DHT22;8595;52.542;11.974;2023-03-23T03:19:54;11.60;99.90
16958;DHT22;8595;52.542;11.974;2023-03-23T03:22:23;11.60;99.90
16958;DHT22;8595;52.542;11.974;2023-03-23T03:24:55;11.60;99.90
16958;DHT22;8595;52.542;11.974;2023-03-23T03:27:23;11.60;99.90
16958;DHT22;8595;52.542;11.974;2023-03-23T03:29:54;11.60;99.90
16958;DHT22;8595;52.542;11.974;2023-03-23T03:32:25;11.60;99.90
16958;DHT22;8595;52.542;11.974;2023-03-23T03:34:59;11.70;99.90
16958;DHT22;8595;52.542;11.974;2023-03-23T03:37:26;11.60;99.90
16958;DHT22;8595;52.542;11.974;2023-03-23T03:39:53;11.60;99.90
16958;DHT22;8595;52.542;11.974;2023-03-23T03:42:19;11.60;99.90
16958;DHT22;8595;52.542;11.974;2023-03-23T03:44:46;11.60;99.90
16958;DHT22;8595;52.542;11.974;2023-03-23T03:47:13;11.60;99.90
16958;DHT22;8595;52.542;11.974;2023-03-23T03:49:39;11.60;99.90
16958;DHT22;8595;52.542;11.974;2023-03-23T03:52:07;11.60;99.90
16958;DHT22;8595;52.542;11.974;2023-03-23T03:54:35;11.60;99.90
16958;DHT22;8595;52.542;11.974;2023-03-23T03:57:02;11.50;99.90
16958;DHT22;8595;52.542;11.974;2023-03-23T03:59:28;11.50;99.90
16958;DHT22;8595;52.542;11.974;2023-03-23T04:01:56;11.50;99.90
16958;DHT22;8595;52.542;11.974;2023-03-23T04:04:22;11.50;99.90
16958;DHT22;8595;52.542;11.974;2023-03-23T04:06:49;11.60;99.90
16958;DHT22;8595;52.542;11.974;2023-03-23T04:09:17;11.50;99.90
16958;DHT22;8595;52.542;11.974;2023-03-23T04:11:44;11.60;99.90
16958;DHT22;8595;52.542;11.974;2023-03-23T04:14:11;11.50;99.90
16958;DHT22;8595;52.542;11.974;2023-03-23T04:16:38;11.50;99.90
16958;DHT22;8595;52.542;11.974;2023-03-23T04:19:05;11.50;99.90
16958;DHT22;8595;52.542;11.974;2023-03-23T04:21:32;11.40;99.90
16958;DHT22;8595;52.542;11.974;2023-03-23T04:23:59;11.50;99.90
16958;DHT22;8595;52.542;11.974;2023-03-23T04:26:28;11.50;99.90
16958;DHT22;8595;52.542;11.974;2023-03-23T04:28:55;11.50;99.90
16958;DHT22;8595;52.542;11.974;2023-03-23T04:31:21;11.60;99.90
16958;DHT22;8595;52.542;11.974;2023-03-23T04:33:50;11.60;99.90
16958;DHT22;8595;52.542;11.974;2023-03-23T04:36:19;11.50;99.90
16958;DHT22;8595;52.542;11.974;2023-03-23T04:38:48;11.40;99.90
16958;DHT22;8595;52.542;11.974;2023-03-23T04:41:16;11.40;99.90
16958;DHT22;8595;52.542;11.974;2023-03-23T04:43:44;11.30;99.90
16958;DHT22;8595;52.542;11.974;2023-03-23T04:46:10;11.30;99.90
16958;DHT22;8595;52.542;11.974;2023-03-23T04:48:37;11.30;99.90
16958;DHT22;8595;52.542;11.974;2023-03-23T04:51:05;11.30;99.90
16958;DHT22;8595;52.542;11.974;2023-03-23T04:53:32;11.30;99.90
16958;DHT22;8595;52.542;11.974;2023-03-23T04:55:59;11.20;99.90
16958;DHT22;8595;52.542;11.974;2023-03-23T04:58:27;11.20;99.90
16958;DHT22;8595;52.542;11.974;2023-03-23T05:00:56;11.20;99.90
16958;DHT22;8595;52.542;11.974;2023-03-23T05:03:23;11.20;99.90
16958;DHT22;8595;52.542;11.974;2023-03-23T05:05:50;11.20;99.90
16958;DHT22;8595;52.542;11.974;2023-03-23T05:08:18;11.20;99.90
16958;DHT22;8595;52.542;11.974;2023-03-23T05:10:50;11.10;99.90
16958;DHT22;8595;52.542;11.974;2023-03-23T05:13:17;11.10;99.90
16958;DHT22;8595;52.542;11.974;2023-03-23T05:15:44;11.00;99.90
16958;DHT22;8595;52.542;11.974;2023-03-23T05:18:12;11.00;99.90
16958;DHT22;8595;52.542;11.974;2023-03-23T05:20:39;10.90;99.90
16958;DHT22;8595;52.542;11.974;2023-03-23T05:23:07;11.00;99.90
16958;DHT22;8595;52.542;11.974;2023-03-23T05:25:34;11.00;99.90
16958;DHT22;8595;52.542;11.974;2023-03-23T05:28:05;11.00;99.90
16958;DHT22;8595;52.542;11.974;2023-03-23T05:30:32;11.00;99.90
16958;DHT22;8595;52.542;11.974;2023-03-23T05:32:59;10.80;99.90
16958;DHT22;8595;52.542;11.974;2023-03-23T05:35:27;10.90;99.90
16958;DHT22;8595;52.542;11.974;2023-03-23T05:37:54;10.90;99.90
16958;DHT22;8595;52.542;11.974;2023-03-23T05:40:21;10.90;99.90
16958;DHT22;8595;52.542;11.974;2023-03-23T05:42:49;10.90;99.90
16958;DHT22;8595;52.542;11.974;2023-03-23T05:45:15;10.80;99.90
16958;DHT22;8595;52.542;11.974;2023-03-23T05:47:43;10.70;99.90
16958;DHT22;8595;52.542;11.974;2023-03-23T05:50:11;10.70;99.90
16958;DHT22;8595;52.542;11.974;2023-03-23T05:52:40;10.70;99.90
16958;DHT22;8595;52.542;11.974;2023-03-23T05:55:08;10.70;99.90
16958;DHT22;8595;52.542;11.974;2023-03-23T05:57:35;10.70;99.90
16958;DHT22;8595;52.542;11.974;2023-03-23T06:00:02;10.70;99.90
16958;DHT22;8595;52.542;11.974;2023-03-23T06:02:38;10.70;99.90
16958;DHT22;8595;52.542;11.974;2023-03-23T06:05:06;10.80;99.90
16958;DHT22;8595;52.542;11.974;2023-03-23T06:07:33;10.70;99.90
16958;DHT22;8595;52.542;11.974;2023-03-23T06:10:02;10.70;99.90
16958;DHT22;8595;52.542;11.974;2023-03-23T06:12:29;10.70;99.90
16958;DHT22;8595;52.542;11.974;2023-03-23T06:14:56;10.70;99.90
16958;DHT22;8595;52.542;11.974;2023-03-23T06:17:23;10.70;99.90
16958;DHT22;8595;52.542;11.974;2023-03-23T06:19:50;10.70;99.90
16958;DHT22;8595;52.542;11.974;2023-03-23T06:22:18;10.80;99.90
16958;DHT22;8595;52.542;11.974;2023-03-23T06:24:45;10.90;99.90
16958;DHT22;8595;52.542;11.974;2023-03-23T06:27:13;10.90;99.90
16958;DHT22;8595;52.542;11.974;2023-03-23T06:29:41;11.00;99.90
16958;DHT22;8595;52.542;11.974;2023-03-23T06:32:11;11.00;99.90
16958;DHT22;8595;52.542;11.974;2023-03-23T06:34:38;11.00;99.90
16958;DHT22;8595;52.542;11.974;2023-03-23T06:37:05;11.10;99.90
16958;DHT22;8595;52.542;11.974;2023-03-23T06:39:32;11.00;99.90
16958;DHT22;8595;52.542;11.974;2023-03-23T06:41:59;11.10;99.90
16958;DHT22;8595;52.542;11.974;2023-03-23T06:44:27;11.10;99.90
16958;DHT22;8595;52.542;11.974;2023-03-23T06:46:54;11.10;99.90
16958;DHT22;8595;52.542;11.974;2023-03-23T06:49:20;11.20;99.90
16958;DHT22;8595;52.542;11.974;2023-03-23T06:51:48;11.20;99.90
16958;DHT22;8595;52.542;11.974;2023-03-23T06:54:14;11.20;99.90
16958;DHT22;8595;52.542;11.974;2023-03-23T06:56:41;11.20;99.90
16958;DHT22;8595;52.542;11.974;2023-03-23T06:59:08;11.30;99.90
16958;DHT22;8595;52.542;11.974;2023-03-23T07:01:36;11.40;99.90
16958;DHT22;8595;52.542;11.974;2023-03-23T07:04:03;11.30;99.90
16958;DHT22;8595;52.542;11.974;2023-03-23T07:06:30;11.50;99.90
16958;DHT22;8595;52.542;11.974;2023-03-23T07:08:57;11.60;99.90
16958;DHT22;8595;52.542;11.974;2023-03-23T07:11:25;11.50;99.90
16958;DHT22;8595;52.542;11.974;2023-03-23T07:13:52;11.50;99.90
16958;DHT22;8595;52.542;11.974;2023-03-23T07:16:18;11.60;99.90
16958;DHT22;8595;52.542;11.974;2023-03-23T07:18:46;11.60;99.90
16958;DHT22;8595;52.542;11.974;2023-03-23T07:21:13;11.60;99.90
16958;DHT22;8595;52.542;11.974;2023-03-23T07:23:39;11.60;99.90
16958;DHT22;8595;52.542;11.974;2023-03-23T07:26:07;11.60;99.90
16958;DHT22;8595;52.542;11.974;2023-03-23T07:28:33;11.50;99.90
16958;DHT22;8595;52.542;11.974;2023-03-23T07:31:02;11.50;99.90
16958;DHT22;8595;52.542;11.974;2023-03-23T07:33:28;11.60;99.90
16958;DHT22;8595;52.542;11.974;2023-03-23T07:35:58;11.60;99.90
16958;DHT22;8595;52.542;11.974;2023-03-23T07:38:25;11.60;99.90
16958;DHT22;8595;52.542;11.974;2023-03-23T07:40:53;11.60;99.90
16958;DHT22;8595;52.542;11.974;2023-03-23T07:43:20;11.60;99.90
16958;DHT22;8595;52.542;11.974;2023-03-23T07:45:46;11.70;99.90
16958;DHT22;8595;52.542;11.974;2023-03-23T07:48:13;11.70;99.90
16958;DHT22;8595;52.542;11.974;2023-03-23T07:50:40;11.70;99.90
16958;DHT22;8595;52.542;11.974;2023-03-23T07:53:08;11.70;99.90
16958;DHT22;8595;52.542;11.974;2023-03-23T07:55:35;11.80;99.90
16958;DHT22;8595;52.542;11.974;2023-03-23T07:58:02;11.80;99.90
16958;DHT22;8595;52.542;11.974;2023-03-23T08:00:29;11.90;99.90
16958;DHT22;8595;52.542;11.974;2023-03-23T08:02:57;12.00;99.90
16958;DHT22;8595;52.542;11.974;2023-03-23T08:05:25;11.90;99.90
16958;DHT22;8595;52.542;11.974;2023-03-23T08:07:54;12.00;99.90
16958;DHT22;8595;52.542;11.974;2023-03-23T08:10:23;12.10;99.90
16958;DHT22;8595;52.542;11.974;2023-03-23T08:12:52;12.20;99.90
16958;DHT22;8595;52.542;11.974;2023-03-23T08:15:19;12.20;99.90
16958;DHT22;8595;52.542;11.974;2023-03-23T08:17:47;12.20;99.90
16958;DHT22;8595;52.542;11.974;2023-03-23T08:20:14;12.20;99.90
16958;DHT22;8595;52.542;11.974;2023-03-23T08:22:43;12.30;99.90
16958;DHT22;8595;52.542;11.974;2023-03-23T08:25:13;12.40;99.90
16958;DHT22;8595;52.542;11.974;2023-03-23T08:27:43;12.40;99.90
16958;DHT22;8595;52.542;11.974;2023-03-23T08:30:12;12.30;99.90
16958;DHT22;8595;52.542;11.974;2023-03-23T08:32:42;12.40;99.90
16958;DHT22;8595;52.542;11.974;2023-03-23T08:35:10;12.30;99.90
16958;DHT22;8595;52.542;11.974;2023-03-23T08:37:38;12.40;99.90
16958;DHT22;8595;52.542;11.974;2023-03-23T08:40:08;12.60;99.90
16958;DHT22;8595;52.542;11.974;2023-03-23T08:42:36;12.80;99.90
16958;DHT22;8595;52.542;11.974;2023-03-23T08:45:06;12.90;99.90
16958;DHT22;8595;52.542;11.974;2023-03-23T08:47:33;13.20;99.90
16958;DHT22;8595;52.542;11.974;2023-03-23T08:50:00;13.30;99.90
16958;DHT22;8595;52.542;11.974;2023-03-23T08:52:27;13.30;99.90
16958;DHT22;8595;52.542;11.974;2023-03-23T08:54:54;13.30;99.90
16958;DHT22;8595;52.542;11.974;2023-03-23T08:57:22;13.20;99.90
16958;DHT22;8595;52.542;11.974;2023-03-23T08:59:49;13.30;99.90
16958;DHT22;8595;52.542;11.974;2023-03-23T09:02:18;13.20;99.90
16958;DHT22;8595;52.542;11.974;2023-03-23T09:04:45;13.10;99.90
16958;DHT22;8595;52.542;11.974;2023-03-23T09:07:12;13.10;99.90
16958;DHT22;8595;52.542;11.974;2023-03-23T09:09:40;13.20;99.90
16958;DHT22;8595;52.542;11.974;2023-03-23T09:12:08;13.30;99.90
16958;DHT22;8595;52.542;11.974;2023-03-23T09:14:36;13.40;99.90
16958;DHT22;8595;52.542;11.974;2023-03-23T09:17:03;13.50;99.90
16958;DHT22;8595;52.542;11.974;2023-03-23T09:19:32;13.60;99.90
16958;DHT22;8595;52.542;11.974;2023-03-23T09:22:00;13.50;99.90
16958;DHT22;8595;52.542;11.974;2023-03-23T09:24:27;13.50;99.90
16958;DHT22;8595;52.542;11.974;2023-03-23T09:26:54;13.60;99.90
16958;DHT22;8595;52.542;11.974;2023-03-23T09:29:20;13.50;99.90
16958;DHT22;8595;52.542;11.974;2023-03-23T09:31:47;13.60;99.90
16958;DHT22;8595;52.542;11.974;2023-03-23T09:34:14;13.60;99.90
16958;DHT22;8595;52.542;11.974;2023-03-23T09:36:44;13.50;99.90
16958;DHT22;8595;52.542;11.974;2023-03-23T09:39:11;13.60;99.90
16958;DHT22;8595;52.542;11.974;2023-03-23T09:42:02;13.60;99.90
16958;DHT22;8595;52.542;11.974;2023-03-23T09:44:38;13.60;99.90
16958;DHT22;8595;52.542;11.974;2023-03-23T09:47:11;13.70;99.90
16958;DHT22;8595;52.542;11.974;2023-03-23T09:49:43;13.80;99.90
16958;DHT22;8595;52.542;11.974;2023-03-23T09:52:15;13.80;99.90
16958;DHT22;8595;52.542;11.974;2023-03-23T09:54:44;13.90;99.90
16958;DHT22;8595;52.542;11.974;2023-03-23T09:57:15;14.00;99.90
16958;DHT22;8595;52.542;11.974;2023-03-23T09:59:47;14.10;99.90
16958;DHT22;8595;52.542;11.974;2023-03-23T10:02:18;14.10;99.90
16958;DHT22;8595;52.542;11.974;2023-03-23T10:04:47;14.20;99.90
16958;DHT22;8595;52.542;11.974;2023-03-23T10:07:18;14.30;99.90
16958;DHT22;8595;52.542;11.974;2023-03-23T10:09:48;14.50;99.90
16958;DHT22;8595;52.542;11.974;2023-03-23T10:12:29;14.40;99.90
16958;DHT22;8595;52.542;11.974;2023-03-23T10:15:09;14.50;99.90
16958;DHT22;8595;52.542;11.974;2023-03-23T10:17:42;14.70;99.90
16958;DHT22;8595;52.542;11.974;2023-03-23T10:20:23;14.70;99.90
16958;DHT22;8595;52.542;11.974;2023-03-23T10:23:00;14.80;99.90
16958;DHT22;8595;52.542;11.974;2023-03-23T10:25:30;14.80;99.90
16958;DHT22;8595;52.542;11.974;2023-03-23T10:28:03;14.90;99.90
16958;DHT22;8595;52.542;11.974;2023-03-23T10:30:33;15.00;99.90
16958;DHT22;8595;52.542;11.974;2023-03-23T10:33:03;15.00;99.90
16958;DHT22;8595;52.542;11.974;2023-03-23T10:35:34;15.10;99.90
16958;DHT22;8595;52.542;11.974;2023-03-23T10:38:11;15.00;99.90
16958;DHT22;8595;52.542;11.974;2023-03-23T10:40:55;15.10;99.90
16958;DHT22;8595;52.542;11.974;2023-03-23T10:43:23;15.10;99.90
16958;DHT22;8595;52.542;11.974;2023-03-23T10:45:55;15.10;99.90
16958;DHT22;8595;52.542;11.974;2023-03-23T10:48:28;15.20;99.90
16958;DHT22;8595;52.542;11.974;2023-03-23T10:51:00;15.40;99.90
16958;DHT22;8595;52.542;11.974;2023-03-23T10:53:34;15.30;99.90
16958;DHT22;8595;52.542;11.974;2023-03-23T10:56:02;15.30;99.90
16958;DHT22;8595;52.542;11.974;2023-03-23T10:58:30;15.40;99.90
16958;DHT22;8595;52.542;11.974;2023-03-23T11:00:58;15.40;99.90
16958;DHT22;8595;52.542;11.974;2023-03-23T11:03:38;15.30;99.90
16958;DHT22;8595;52.542;11.974;2023-03-23T11:06:07;15.30;99.90
16958;DHT22;8595;52.542;11.974;2023-03-23T11:08:46;15.30;99.90
16958;DHT22;8595;52.542;11.974;2023-03-23T11:11:16;15.40;99.90
16958;DHT22;8595;52.542;11.974;2023-03-23T11:13:45;15.50;99.90
16958;DHT22;8595;52.542;11.974;2023-03-23T11:16:22;15.50;99.90
16958;DHT22;8595;52.542;11.974;2023-03-23T11:18:49;15.70;99.90
16958;DHT22;8595;52.542;11.974;2023-03-23T11:21:19;15.80;99.90
16958;DHT22;8595;52.542;11.974;2023-03-23T11:23:50;15.80;99.90
16958;DHT22;8595;52.542;11.974;2023-03-23T11:26:20;15.90;99.90
16958;DHT22;8595;52.542;11.974;2023-03-23T11:28:52;15.80;99.90
16958;DHT22;8595;52.542;11.974;2023-03-23T11:31:21;15.80;99.90
16958;DHT22;8595;52.542;11.974;2023-03-23T11:33:52;15.80;99.90
16958;DHT22;8595;52.542;11.974;2023-03-23T11:36:20;15.70;99.90
16958;DHT22;8595;52.542;11.974;2023-03-23T11:38:53;15.80;99.90
16958;DHT22;8595;52.542;11.974;2023-03-23T11:41:23;15.90;99.90
16958;DHT22;8595;52.542;11.974;2023-03-23T11:43:52;16.00;99.90
16958;DHT22;8595;52.542;11.974;2023-03-23T11:46:29;16.00;99.90
16958;DHT22;8595;52.542;11.974;2023-03-23T11:49:01;15.90;99.90
16958;DHT22;8595;52.542;11.974;2023-03-23T11:51:33;15.90;99.90
16958;DHT22;8595;52.542;11.974;2023-03-23T11:54:12;15.80;99.90
16958;DHT22;8595;52.542;11.974;2023-03-23T11:56:43;15.70;99.90
16958;DHT22;8595;52.542;11.974;2023-03-23T11:59:12;15.80;99.90
16958;DHT22;8595;52.542;11.974;2023-03-23T12:01:47;15.70;99.90
16958;DHT22;8595;52.542;11.974;2023-03-23T12:04:32;15.80;99.90
16958;DHT22;8595;52.542;11.974;2023-03-23T12:07:09;15.80;99.90
16958;DHT22;8595;52.542;11.974;2023-03-23T12:09:47;15.90;99.90
16958;DHT22;8595;52.542;11.974;2023-03-23T12:12:21;15.90;99.90
16958;DHT22;8595;52.542;11.974;2023-03-23T12:15:00;15.90;99.90
16958;DHT22;8595;52.542;11.974;2023-03-23T12:17:34;15.90;99.90
16958;DHT22;8595;52.542;11.974;2023-03-23T12:20:16;15.90;99.90
16958;DHT22;8595;52.542;11.974;2023-03-23T12:22:57;15.80;99.90
16958;DHT22;8595;52.542;11.974;2023-03-23T12:28:36;16.10;99.90
16958;DHT22;8595;52.542;11.974;2023-03-23T12:31:11;16.40;99.90
16958;DHT22;8595;52.542;11.974;2023-03-23T12:33:48;17.20;99.90
16958;DHT22;8595;52.542;11.974;2023-03-23T12:36:25;17.50;99.90
16958;DHT22;8595;52.542;11.974;2023-03-23T12:39:14;17.60;99.90
16958;DHT22;8595;52.542;11.974;2023-03-23T12:41:50;17.50;99.90
16958;DHT22;8595;52.542;11.974;2023-03-23T12:44:24;17.80;99.90
16958;DHT22;8595;52.542;11.974;2023-03-23T12:47:17;17.50;99.90
16958;DHT22;8595;52.542;11.974;2023-03-23T12:49:52;17.60;99.90
16958;DHT22;8595;52.542;11.974;2023-03-23T12:52:23;17.90;99.90
16958;DHT22;8595;52.542;11.974;2023-03-23T12:54:55;18.50;99.90
16958;DHT22;8595;52.542;11.974;2023-03-23T12:57:29;18.10;99.90
16958;DHT22;8595;52.542;11.974;2023-03-23T13:00:03;18.00;99.90
16958;DHT22;8595;52.542;11.974;2023-03-23T13:02:40;18.10;99.90
16958;DHT22;8595;52.542;11.974;2023-03-23T13:05:11;17.90;99.90
16958;DHT22;8595;52.542;11.974;2023-03-23T13:07:43;17.80;99.90
16958;DHT22;8595;52.542;11.974;2023-03-23T13:10:17;17.50;99.90
16958;DHT22;8595;52.542;11.974;2023-03-23T13:12:47;17.30;99.90
16958;DHT22;8595;52.542;11.974;2023-03-23T13:15:25;17.10;99.90
16958;DHT22;8595;52.542;11.974;2023-03-23T13:17:58;17.10;99.90
16958;DHT22;8595;52.542;11.974;2023-03-23T13:20:44;17.30;99.90
16958;DHT22;8595;52.542;11.974;2023-03-23T13:23:16;17.30;99.90
16958;DHT22;8595;52.542;11.974;2023-03-23T13:25:51;18.10;99.90
16958;DHT22;8595;52.542;11.974;2023-03-23T13:28:21;19.00;99.90
16958;DHT22;8595;52.542;11.974;2023-03-23T13:31:02;19.60;99.90
16958;DHT22;8595;52.542;11.974;2023-03-23T13:33:33;19.80;99.90
16958;DHT22;8595;52.542;11.974;2023-03-23T13:36:08;19.50;99.90
16958;DHT22;8595;52.542;11.974;2023-03-23T13:38:35;19.90;99.90
16958;DHT22;8595;52.542;11.974;2023-03-23T13:41:08;19.90;99.90
16958;DHT22;8595;52.542;11.974;2023-03-23T13:43:38;20.30;99.90
16958;DHT22;8595;52.542;11.974;2023-03-23T13:46:24;20.70;99.90
16958;DHT22;8595;52.542;11.974;2023-03-23T13:49:04;20.90;99.90
16958;DHT22;8595;52.542;11.974;2023-03-23T13:51:35;20.40;99.90
16958;DHT22;8595;52.542;11.974;2023-03-23T13:54:14;19.80;99.90
16958;DHT22;8595;52.542;11.974;2023-03-23T13:56:47;18.90;99.90
16958;DHT22;8595;52.542;11.974;2023-03-23T13:59:17;18.50;99.90
16958;DHT22;8595;52.542;11.974;2023-03-23T14:01:55;18.50;99.90
16958;DHT22;8595;52.542;11.974;2023-03-23T14:04:29;19.40;99.90
16958;DHT22;8595;52.542;11.974;2023-03-23T14:07:09;19.80;99.90
16958;DHT22;8595;52.542;11.974;2023-03-23T14:09:39;19.40;99.90
16958;DHT22;8595;52.542;11.974;2023-03-23T14:12:14;19.10;99.90
16958;DHT22;8595;52.542;11.974;2023-03-23T14:14:45;18.60;99.90
16958;DHT22;8595;52.542;11.974;2023-03-23T14:17:14;18.20;99.90
16958;DHT22;8595;52.542;11.974;2023-03-23T14:19:46;18.10;99.90
16958;DHT22;8595;52.542;11.974;2023-03-23T14:22:18;17.80;99.90
16958;DHT22;8595;52.542;11.974;2023-03-23T14:24:45;17.40;99.90
16958;DHT22;8595;52.542;11.974;2023-03-23T14:27:14;17.30;99.90
16958;DHT22;8595;52.542;11.974;2023-03-23T14:29:41;17.30;99.90
16958;DHT22;8595;52.542;11.974;2023-03-23T14:32:18;17.20;99.90
16958;DHT22;8595;52.542;11.974;2023-03-23T14:34:51;17.20;99.90
16958;DHT22;8595;52.542;11.974;2023-03-23T14:37:18;17.10;99.90
16958;DHT22;8595;52.542;11.974;2023-03-23T14:39:48;16.50;99.90
16958;DHT22;8595;52.542;11.974;2023-03-23T14:42:24;15.60;99.90
16958;DHT22;8595;52.542;11.974;2023-03-23T14:44:52;14.90;99.90
16958;DHT22;8595;52.542;11.974;2023-03-23T14:47:24;14.40;99.90
16958;DHT22;8595;52.542;11.974;2023-03-23T14:49:53;14.20;99.90
16958;DHT22;8595;52.542;11.974;2023-03-23T14:52:22;14.00;99.90
16958;DHT22;8595;52.542;11.974;2023-03-23T14:54:49;13.70;99.90
16958;DHT22;8595;52.542;11.974;2023-03-23T14:57:17;13.60;99.90
16958;DHT22;8595;52.542;11.974;2023-03-23T14:59:45;13.50;99.90
16958;DHT22;8595;52.542;11.974;2023-03-23T15:02:24;13.60;99.90
16958;DHT22;8595;52.542;11.974;2023-03-23T15:04:56;13.60;99.90
16958;DHT22;8595;52.542;11.974;2023-03-23T15:07:26;13.60;99.90
16958;DHT22;8595;52.542;11.974;2023-03-23T15:09:56;13.50;99.90
16958;DHT22;8595;52.542;11.974;2023-03-23T15:12:24;13.60;99.90
16958;DHT22;8595;52.542;11.974;2023-03-23T15:14:54;13.80;99.90
16958;DHT22;8595;52.542;11.974;2023-03-23T15:17:23;14.00;99.90
16958;DHT22;8595;52.542;11.974;2023-03-23T15:19:50;14.10;99.90
16958;DHT22;8595;52.542;11.974;2023-03-23T15:22:22;14.20;99.90
16958;DHT22;8595;52.542;11.974;2023-03-23T15:24:50;14.20;99.90
16958;DHT22;8595;52.542;11.974;2023-03-23T15:27:24;14.20;99.90
16958;DHT22;8595;52.542;11.974;2023-03-23T15:29:52;14.40;99.90
16958;DHT22;8595;52.542;11.974;2023-03-23T15:32:25;14.20;99.90
16958;DHT22;8595;52.542;11.974;2023-03-23T15:34:52;14.00;99.90
16958;DHT22;8595;52.542;11.974;2023-03-23T15:37:25;14.00;99.90
16958;DHT22;8595;52.542;11.974;2023-03-23T15:39:53;14.00;99.90
16958;DHT22;8595;52.542;11.974;2023-03-23T15:42:22;13.90;99.90
16958;DHT22;8595;52.542;11.974;2023-03-23T15:47:48;13.90;99.90
16958;DHT22;8595;52.542;11.974;2023-03-23T15:50:16;13.80;99.90
16958;DHT22;8595;52.542;11.974;2023-03-23T15:52:46;13.90;99.90
16958;DHT22;8595;52.542;11.974;2023-03-23T15:55:21;13.90;99.90